Time;durP1;ratioP1;P1;durP2;ratioP2;P2;SDS_P1;SDS_P2;PMS_P1;PMS_P2;Temp;Humidity;BMP_temperature;BMP_pressure;BME280_temperature;BME280_humidity;BME280_pressure;Samples;Min_cycle;Max_cycle;Signal;HPM_P1;HPM_P2
2022/08/24 00:02:34;;;;;;;9.43;5.93;;;;;;;23.70;100.00;100893.91;4918835;29;20039;-73
2022/08/24 00:05:20;;;;;;;12.57;6.80;;;;;;;23.74;100.00;100892.72;4917767;29;20051;-74
2022/08/24 00:08:06;;;;;;;10.45;6.57;;;;;;;23.64;100.00;100902.34;4921948;29;20032;-72
2022/08/24 00:10:52;;;;;;;8.48;6.72;;;;;;;23.28;100.00;100906.53;4921746;29;20092;-72
2022/08/24 00:13:38;;;;;;;10.18;6.97;;;;;;;23.59;100.00;100913.38;4921720;29;20496;-72
2022/08/24 00:16:24;;;;;;;14.20;6.90;;;;;;;23.51;100.00;100914.84;4922148;29;20051;-72
2022/08/24 00:19:10;;;;;;;8.68;6.47;;;;;;;23.38;100.00;100911.28;4922680;29;20071;-72
2022/08/24 00:21:56;;;;;;;8.75;6.55;;;;;;;23.78;100.00;100911.13;4907329;29;20111;-73
2022/08/24 00:24:43;;;;;;;13.60;7.88;;;;;;;23.48;100.00;100924.78;4907284;29;20071;-72
2022/08/24 00:27:28;;;;;;;12.05;7.50;;;;;;;23.41;100.00;100925.28;4920822;29;20059;-73
2022/08/24 00:30:17;;;;;;;13.63;7.20;;;;;;;23.62;100.00;100923.84;4921267;29;20450;-73
2022/08/24 00:33:03;;;;;;;13.02;8.32;;;;;;;23.43;100.00;100929.56;4920185;29;20032;-72
2022/08/24 00:35:49;;;;;;;11.40;7.63;;;;;;;23.34;100.00;100927.53;4923937;29;20460;-72
2022/08/24 00:38:35;;;;;;;12.50;8.27;;;;;;;23.40;100.00;100928.94;4914662;29;20366;-72
2022/08/24 00:41:21;;;;;;;16.77;8.95;;;;;;;23.38;100.00;100924.66;4916532;29;20043;-72
2022/08/24 00:44:09;;;;;;;13.05;9.60;;;;;;;23.37;100.00;100910.41;4929195;29;20056;-72
2022/08/24 00:47:01;;;;;;;13.57;9.35;;;;;;;23.25;100.00;100901.41;4928841;29;20035;-72
2022/08/24 00:49:47;;;;;;;15.23;9.60;;;;;;;23.51;100.00;100901.47;4915063;29;20046;-72
2022/08/24 00:52:38;;;;;;;15.07;9.43;;;;;;;23.28;100.00;100892.31;4915912;29;20095;-72
2022/08/24 00:55:33;;;;;;;14.80;9.20;;;;;;;23.38;100.00;100886.25;4915399;29;20369;-71
2022/08/24 00:58:26;;;;;;;16.83;9.15;;;;;;;23.12;100.00;100881.72;4929138;29;20035;-72
2022/08/24 01:01:13;;;;;;;16.48;8.48;;;;;;;23.29;100.00;100881.53;4926936;29;20087;-73
2022/08/24 01:03:59;;;;;;;15.57;8.85;;;;;;;23.13;100.00;100878.13;4924089;29;20036;-74
2022/08/24 01:06:48;;;;;;;14.30;8.32;;;;;;;23.23;100.00;100868.56;4923627;29;20052;-74
2022/08/24 01:09:34;;;;;;;13.23;8.63;;;;;;;23.16;100.00;100869.88;4924390;29;20115;-72
2022/08/24 01:12:21;;;;;;;11.98;7.97;;;;;;;23.12;100.00;100863.03;4923541;29;20032;-72
2022/08/24 01:15:09;;;;;;;14.50;8.07;;;;;;;23.08;100.00;100856.16;4923570;29;20039;-72
2022/08/24 01:21:22;;;;;;;13.00;8.27;;;;;;;23.02;100.00;100855.72;4919785;29;20072;-73
2022/08/24 01:24:12;;;;;;;12.85;7.80;;;;;;;23.10;100.00;100856.94;4919553;29;20036;-73
2022/08/24 01:26:58;;;;;;;14.18;7.82;;;;;;;23.07;100.00;100864.31;4907897;29;20462;-73
2022/08/24 01:29:45;;;;;;;13.80;7.53;;;;;;;23.28;100.00;100870.94;4906311;29;20040;-73
2022/08/24 01:32:31;;;;;;;9.63;7.65;;;;;;;23.21;100.00;100865.13;4921035;29;20065;-73
2022/08/24 01:35:17;;;;;;;12.05;7.35;;;;;;;23.10;100.00;100862.28;4920703;29;20059;-72
2022/08/24 01:38:07;;;;;;;11.68;7.40;;;;;;;23.05;100.00;100864.41;4919692;29;20179;-73
2022/08/24 01:40:58;;;;;;;13.57;7.35;;;;;;;23.38;100.00;100859.50;4906963;29;20345;-73
2022/08/24 01:43:44;;;;;;;11.70;7.50;;;;;;;23.50;100.00;100851.63;4920262;29;20119;-73
2022/08/24 01:46:30;;;;;;;10.13;7.13;;;;;;;23.56;100.00;100851.19;4906563;29;20027;-73
2022/08/24 01:49:16;;;;;;;12.70;5.93;;;;;;;23.27;100.00;100848.66;4920175;29;20036;-73
2022/08/24 01:52:05;;;;;;;10.25;6.75;;;;;;;23.30;100.00;100853.81;4905692;29;20028;-73
2022/08/24 01:54:52;;;;;;;9.88;6.47;;;;;;;23.19;100.00;100850.97;4906512;29;20448;-73
2022/08/24 01:57:38;;;;;;;11.07;7.20;;;;;;;23.27;100.00;100864.72;4907021;29;20047;-73
2022/08/24 02:00:25;;;;;;;10.25;6.53;;;;;;;23.21;100.00;100862.47;4919998;29;20030;-73
2022/08/24 02:03:11;;;;;;;9.70;6.45;;;;;;;22.98;100.00;100863.09;4920270;29;20032;-73
2022/08/24 02:05:57;;;;;;;9.57;6.00;;;;;;;23.14;100.00;100874.47;4918736;29;20130;-73
2022/08/24 02:08:43;;;;;;;11.45;6.30;;;;;;;23.15;100.00;100870.84;4919361;29;20024;-73
2022/08/24 02:11:29;;;;;;;9.95;5.93;;;;;;;23.05;100.00;100863.53;4918620;29;20084;-73
2022/08/24 02:14:15;;;;;;;9.02;5.45;;;;;;;23.09;100.00;100867.72;4919812;29;20350;-73
2022/08/24 02:17:03;;;;;;;11.50;5.80;;;;;;;23.16;100.00;100869.88;4919147;29;20036;-72
2022/08/24 02:19:48;;;;;;;9.40;6.00;;;;;;;22.90;100.00;100865.41;4918363;29;20060;-72
2022/08/24 02:22:34;;;;;;;12.48;6.50;;;;;;;23.23;100.00;100865.88;4919398;29;20103;-73
2022/08/24 02:25:20;;;;;;;12.05;6.10;;;;;;;23.00;100.00;100865.66;4919494;29;20028;-73
2022/08/24 02:28:06;;;;;;;8.98;5.70;;;;;;;22.87;100.00;100860.25;4919598;29;20028;-72
2022/08/24 02:30:52;;;;;;;8.25;5.53;;;;;;;23.07;100.00;100862.47;4918251;29;20406;-73
2022/08/24 02:33:39;;;;;;;9.25;5.03;;;;;;;23.00;100.00;100863.00;4904916;29;20032;-71
2022/08/24 02:36:25;;;;;;;9.43;5.72;;;;;;;22.99;100.00;100866.63;4918129;29;20031;-72
2022/08/24 02:39:11;;;;;;;9.23;5.65;;;;;;;22.94;100.00;100874.06;4919230;29;20438;-73
2022/08/24 02:41:57;;;;;;;7.90;4.95;;;;;;;22.82;100.00;100869.53;4919530;29;20386;-73
2022/08/24 02:44:43;;;;;;;8.02;4.88;;;;;;;23.09;100.00;100867.72;4918073;29;20441;-73
2022/08/24 02:47:29;;;;;;;6.30;4.70;;;;;;;23.08;100.00;100863.34;4918649;29;20024;-72
2022/08/24 02:50:16;;;;;;;7.47;4.65;;;;;;;22.95;100.00;100868.63;4918842;29;20028;-72
2022/08/24 02:53:02;;;;;;;9.23;4.95;;;;;;;23.12;100.00;100859.50;4917655;29;20028;-71
2022/08/24 02:55:48;;;;;;;10.45;5.18;;;;;;;23.04;100.00;100854.69;4919156;29;20350;-73
2022/08/24 02:58:34;;;;;;;8.63;5.10;;;;;;;22.87;100.00;100859.44;4905405;29;20032;-73
2022/08/24 03:01:19;;;;;;;5.75;4.80;;;;;;;23.08;100.00;100852.66;4918410;29;20095;-73
2022/08/24 03:04:06;;;;;;;8.57;4.35;;;;;;;22.80;100.00;100864.31;4918819;29;20058;-72
2022/08/24 03:06:51;;;;;;;8.57;4.97;;;;;;;22.53;100.00;100863.44;4919050;29;20070;-72
2022/08/24 03:09:37;;;;;;;5.20;4.32;;;;;;;22.44;100.00;100874.69;4918675;29;20548;-73
2022/08/24 03:12:23;;;;;;;8.50;4.70;;;;;;;22.49;100.00;100866.38;4918899;29;20421;-73
2022/08/24 03:15:10;;;;;;;8.68;4.85;;;;;;;22.57;100.00;100861.41;4917760;29;20055;-72
2022/08/24 03:17:56;;;;;;;7.22;4.72;;;;;;;22.50;100.00;100870.75;4919364;29;20032;-73
2022/08/24 03:20:42;;;;;;;9.02;4.55;;;;;;;22.77;100.00;100880.53;4918629;29;20032;-74
2022/08/24 03:23:28;;;;;;;9.68;4.63;;;;;;;22.63;100.00;100875.22;4918393;29;20099;-72
2022/08/24 03:26:14;;;;;;;7.95;4.90;;;;;;;22.96;100.00;100875.72;4919207;29;20035;-73
2022/08/24 03:29:00;;;;;;;8.40;5.03;;;;;;;22.65;100.00;100884.00;4917222;29;20055;-72
2022/08/24 03:31:47;;;;;;;7.70;5.18;;;;;;;22.84;100.00;100881.88;4904032;29;20046;-72
2022/08/24 03:34:32;;;;;;;10.88;5.38;;;;;;;22.79;100.00;100894.63;4917218;29;20123;-73
2022/08/24 03:37:19;;;;;;;6.18;4.70;;;;;;;23.11;100.00;100897.91;4905123;29;20497;-72
2022/08/24 03:40:07;;;;;;;8.32;4.90;;;;;;;22.91;100.00;100896.50;4919252;29;20417;-74
2022/08/24 03:42:53;;;;;;;10.05;5.53;;;;;;;23.08;100.00;100901.59;4919972;29;20032;-73
2022/08/24 03:45:42;;;;;;;11.00;4.88;;;;;;;22.86;100.00;100898.63;4922149;29;20032;-72
2022/08/24 03:48:29;;;;;;;7.97;4.55;;;;;;;23.11;100.00;100904.09;4921716;29;20102;-73
2022/08/24 03:51:19;;;;;;;7.72;4.65;;;;;;;23.10;100.00;100902.38;4922687;29;20060;-73
2022/08/24 03:54:06;;;;;;;8.77;5.07;;;;;;;23.14;100.00;100895.88;4921609;29;20461;-73
2022/08/24 03:56:52;;;;;;;9.93;5.25;;;;;;;23.19;100.00;100904.44;4921972;29;20029;-72
2022/08/24 03:59:38;;;;;;;7.90;5.30;;;;;;;23.00;100.00;100898.63;4908426;29;20074;-73
2022/08/24 04:02:25;;;;;;;10.25;5.50;;;;;;;23.23;100.00;100900.63;4922536;29;20099;-74
2022/08/24 04:05:12;;;;;;;8.95;5.50;;;;;;;23.38;100.00;100903.25;4921313;29;20051;-73
2022/08/24 04:07:57;;;;;;;8.35;5.22;;;;;;;22.95;100.00;100900.69;4921449;29;20044;-72
2022/08/24 04:10:44;;;;;;;12.77;5.22;;;;;;;23.29;100.00;100902.91;4921717;29;20039;-72
2022/08/24 04:13:30;;;;;;;11.18;5.85;;;;;;;23.46;100.00;100898.25;4921349;29;20482;-72
2022/08/24 04:16:19;;;;;;;8.18;5.50;;;;;;;23.34;100.00;100902.59;4921848;29;20050;-73
2022/08/24 04:19:04;;;;;;;11.90;6.00;;;;;;;23.39;100.00;100905.84;4921971;29;20028;-73
2022/08/24 04:21:50;;;;;;;9.43;5.13;;;;;;;23.38;100.00;100908.59;4921280;29;20035;-73
2022/08/24 04:24:36;;;;;;;9.82;5.10;;;;;;;23.48;100.00;100911.38;4920834;29;20354;-73
2022/08/24 04:27:22;;;;;;;9.70;5.10;;;;;;;23.48;100.00;100913.22;4921756;29;20028;-73
2022/08/24 04:30:09;;;;;;;12.02;5.22;;;;;;;23.48;100.00;100909.69;4921779;29;20376;-73
2022/08/24 04:32:55;;;;;;;16.00;6.05;;;;;;;23.55;100.00;100914.53;4907842;29;20036;-72
2022/08/24 04:35:47;;;;;;;13.43;5.38;;;;;;;23.60;100.00;100916.88;4920300;29;20028;-73
2022/08/24 04:38:32;;;;;;;10.60;5.45;;;;;;;23.57;100.00;100922.44;4921234;29;20032;-72
2022/08/24 04:41:19;;;;;;;12.70;5.47;;;;;;;23.95;100.00;100910.84;4921376;29;20426;-73
2022/08/24 04:44:04;;;;;;;10.52;5.80;;;;;;;23.72;100.00;100914.25;4907101;29;20032;-72
2022/08/24 04:46:50;;;;;;;9.40;5.57;;;;;;;23.98;100.00;100920.50;4920199;29;20020;-73
2022/08/24 04:49:37;;;;;;;9.80;5.32;;;;;;;23.46;100.00;100923.16;4921113;29;20543;-73
2022/08/24 04:52:23;;;;;;;9.27;5.00;;;;;;;23.90;100.00;100922.84;4921033;29;20098;-72
2022/08/24 04:55:08;;;;;;;10.63;5.28;;;;;;;23.78;100.00;100923.69;4920476;29;20032;-73
2022/08/24 04:57:54;;;;;;;6.15;4.60;;;;;;;23.93;100.00;100923.50;4919435;29;20060;-73
2022/08/24 05:00:40;;;;;;;8.88;5.07;;;;;;;24.24;100.00;100930.25;4920445;29;20043;-73
2022/08/24 05:03:27;;;;;;;10.65;5.13;;;;;;;23.93;100.00;100938.69;4921216;29;20032;-73
2022/08/24 05:06:14;;;;;;;8.25;4.70;;;;;;;24.08;100.00;100938.50;4918992;29;20052;-73
2022/08/24 05:09:02;;;;;;;11.70;5.18;;;;;;;24.19;100.00;100943.94;4920587;29;20047;-73
2022/08/24 05:11:48;;;;;;;7.85;5.28;;;;;;;23.88;100.00;100944.34;4920887;29;20414;-73
2022/08/24 05:14:34;;;;;;;6.75;4.47;;;;;;;24.21;100.00;100941.16;4920165;29;20043;-73
2022/08/24 05:17:20;;;;;;;6.80;4.90;;;;;;;24.10;100.00;100944.59;4906770;29;20068;-73
2022/08/24 05:20:08;;;;;;;7.15;5.25;;;;;;;23.92;100.00;100939.66;4920799;29;20024;-73
2022/08/24 05:22:54;;;;;;;9.38;4.90;;;;;;;23.94;100.00;100938.59;4920811;29;20032;-72
2022/08/24 05:25:41;;;;;;;9.90;4.90;;;;;;;23.89;100.00;100939.81;4919671;29;20048;-73
2022/08/24 05:28:26;;;;;;;9.30;5.57;;;;;;;24.02;100.00;100944.28;4920510;29;20063;-71
2022/08/24 05:31:19;;;;;;;7.80;5.43;;;;;;;24.24;100.00;100940.97;4906455;29;20438;-72
2022/08/24 05:34:05;;;;;;;10.63;6.55;;;;;;;24.56;100.00;100935.03;4918722;29;20036;-72
2022/08/24 05:36:51;;;;;;;9.80;5.30;;;;;;;24.48;100.00;100931.19;4920162;29;20028;-73
2022/08/24 05:39:38;;;;;;;10.18;4.80;;;;;;;24.38;100.00;100930.13;4920207;29;20064;-73
2022/08/24 05:42:23;;;;;;;9.95;6.22;;;;;;;24.62;100.00;100926.59;4906337;29;20513;-72
2022/08/24 05:45:11;;;;;;;9.82;5.15;;;;;;;24.84;100.00;100923.22;4920273;29;20036;-73
2022/08/24 05:47:57;;;;;;;6.25;5.25;;;;;;;25.03;100.00;100926.25;4906833;29;20062;-73
2022/08/24 05:50:43;;;;;;;13.23;7.25;;;;;;;24.66;100.00;100930.75;4920477;29;20187;-73
2022/08/24 05:53:29;;;;;;;8.40;5.25;;;;;;;24.56;100.00;100929.69;4920053;29;20032;-73
2022/08/24 05:56:16;;;;;;;6.60;4.88;;;;;;;24.87;100.00;100920.31;4907137;29;20028;-73
2022/08/24 05:59:03;;;;;;;6.93;5.05;;;;;;;25.29;100.00;100927.88;4918950;29;20088;-73
2022/08/24 06:01:48;;;;;;;10.25;5.13;;;;;;;24.74;100.00;100928.38;4918145;29;20043;-73
2022/08/24 06:04:36;;;;;;;7.93;5.05;;;;;;;24.74;100.00;100917.66;4918685;29;20096;-73
2022/08/24 06:07:22;;;;;;;7.47;5.18;;;;;;;25.01;100.00;100926.38;4919261;29;20032;-73
2022/08/24 06:10:09;;;;;;;12.45;5.47;;;;;;;25.30;100.00;100918.84;4905194;29;20028;-73
2022/08/24 06:12:55;;;;;;;9.27;5.50;;;;;;;25.12;100.00;100929.09;4919681;29;20036;-73
2022/08/24 06:15:42;;;;;;;12.55;9.55;;;;;;;25.32;100.00;100933.88;4918887;29;20036;-72
2022/08/24 06:18:27;;;;;;;7.32;5.07;;;;;;;25.79;100.00;100938.31;4906526;29;20047;-72
2022/08/24 06:21:15;;;;;;;6.65;4.50;;;;;;;25.63;100.00;100935.13;4906219;29;20039;-73
2022/08/24 06:24:01;;;;;;;6.90;4.22;;;;;;;25.68;100.00;100944.50;4919694;29;20464;-73
2022/08/24 06:29:55;;;;;;;8.43;4.18;;;;;;;25.71;100.00;100946.97;4917952;29;20032;-73
2022/08/24 06:32:42;;;;;;;8.57;4.47;;;;;;;25.52;100.00;100953.84;4920314;29;20449;-72
2022/08/24 06:35:28;;;;;;;7.65;4.25;;;;;;;25.35;100.00;100951.59;4919047;29;20028;-73
2022/08/24 06:38:14;;;;;;;12.43;4.93;;;;;;;25.64;100.00;100951.06;4919958;29;20398;-73
2022/08/24 06:41:00;;;;;;;9.27;6.75;;;;;;;25.43;100.00;100951.88;4918979;29;20122;-72
2022/08/24 06:43:46;;;;;;;7.97;5.22;;;;;;;25.72;100.00;100947.84;4919341;29;20040;-75
2022/08/24 06:46:32;;;;;;;14.18;10.25;;;;;;;25.54;100.00;100950.09;4919975;29;20099;-72
2022/08/24 06:49:18;;;;;;;8.18;5.22;;;;;;;25.87;100.00;100954.69;4919073;29;20031;-73
2022/08/24 06:52:04;;;;;;;10.65;4.97;;;;;;;25.78;100.00;100947.34;4919603;29;20030;-72
2022/08/24 06:54:51;;;;;;;5.82;4.20;;;;;;;26.23;100.00;100941.13;4917477;29;20036;-72
2022/08/24 06:57:37;;;;;;;10.18;4.18;;;;;;;26.01;100.00;100946.47;4918488;29;20039;-72
2022/08/24 07:00:24;;;;;;;5.05;3.80;;;;;;;26.01;100.00;100938.41;4918952;29;20032;-73
2022/08/24 07:03:10;;;;;;;6.50;4.13;;;;;;;25.97;100.00;100940.50;4918679;29;20032;-73
2022/08/24 07:05:56;;;;;;;6.30;4.28;;;;;;;26.28;100.00;100941.66;4917329;29;20056;-73
2022/08/24 07:08:42;;;;;;;7.63;4.40;;;;;;;26.21;100.00;100940.41;4919533;29;20059;-73
2022/08/24 07:11:28;;;;;;;9.23;4.50;;;;;;;26.27;100.00;100937.22;4918974;29;20036;-74
2022/08/24 07:14:14;;;;;;;7.25;4.38;;;;;;;26.12;100.00;100938.44;4918811;29;20043;-73
2022/08/24 07:17:00;;;;;;;8.82;4.63;;;;;;;26.85;100.00;100932.47;4922030;29;20036;-73
2022/08/24 07:19:46;;;;;;;9.15;4.25;;;;;;;26.93;100.00;100930.00;4908663;29;20039;-73
2022/08/24 07:22:32;;;;;;;9.43;4.03;;;;;;;26.85;100.00;100934.31;4922672;29;20036;-73
2022/08/24 07:25:17;;;;;;;9.70;4.50;;;;;;;26.80;100.00;100933.84;4922323;29;20024;-73
2022/08/24 07:28:03;;;;;;;6.25;4.00;;;;;;;26.91;100.00;100929.28;4908237;29;20028;-74
2022/08/24 07:30:49;;;;;;;7.30;4.28;;;;;;;27.00;100.00;100925.84;4922163;29;20457;-74
2022/08/24 07:33:35;;;;;;;6.97;4.00;;;;;;;26.67;100.00;100927.72;4922554;29;20043;-74
2022/08/24 07:36:20;;;;;;;10.00;3.90;;;;;;;26.45;100.00;100930.41;4922686;29;20118;-73
2022/08/24 07:39:07;;;;;;;8.52;4.57;;;;;;;26.86;100.00;100919.88;4921997;29;20111;-73
2022/08/24 07:41:53;;;;;;;6.15;4.07;;;;;;;27.18;100.00;100926.16;4923516;29;20414;-73
2022/08/24 07:44:39;;;;;;;9.50;4.10;;;;;;;27.01;100.00;100918.63;4907315;29;20127;-73
2022/08/24 07:47:25;;;;;;;7.25;4.13;;;;;;;27.01;100.00;100916.78;4922773;29;20036;-73
2022/08/24 07:50:12;;;;;;;5.60;3.30;;;;;;;27.20;100.00;100924.22;4922188;29;20034;-73
2022/08/24 07:52:58;;;;;;;6.82;4.00;;;;;;;27.15;100.00;100923.72;4922305;29;20032;-73
2022/08/24 07:55:55;;;;;;;5.53;3.80;;;;;;;27.23;100.00;100918.59;4908052;29;20028;-73
2022/08/24 07:58:41;;;;;;;7.03;3.80;;;;;;;27.42;100.00;100924.16;4922959;29;20484;-73
2022/08/24 08:01:27;;;;;;;9.20;4.47;;;;;;;27.64;100.00;100928.59;4921929;29;20397;-73
2022/08/24 08:04:14;;;;;;;9.85;4.50;;;;;;;27.83;100.00;100935.00;4921778;29;20452;-73
2022/08/24 08:07:00;;;;;;;8.30;5.15;;;;;;;27.52;100.00;100929.63;4921533;29;20073;-73
2022/08/24 08:09:48;;;;;;;9.63;4.95;;;;;;;27.68;100.00;100930.03;4921519;29;20036;-73
2022/08/24 08:12:34;;;;;;;6.03;4.20;;;;;;;27.86;100.00;100926.66;4922051;29;20043;-73
2022/08/24 08:15:19;;;;;;;7.70;4.75;;;;;;;27.67;100.00;100933.69;4921207;29;20044;-72
2022/08/24 08:18:05;;;;;;;7.18;5.13;;;;;;;28.05;100.00;100929.50;4920656;29;20070;-74
2022/08/24 08:20:51;;;;;;;15.20;8.93;;;;;;;28.52;100.00;100923.50;4922064;29;20024;-73
2022/08/24 08:26:43;;;;;;;8.30;4.85;;;;;;;28.31;100.00;100935.28;4919946;29;20020;-73
2022/08/24 08:29:32;;;;;;;6.38;4.20;;;;;;;28.40;100.00;100938.03;4921919;29;20202;-73
2022/08/24 08:32:18;;;;;;;6.18;4.38;;;;;;;27.70;100.00;100934.31;4921586;29;20039;-73
2022/08/24 08:35:05;;;;;;;8.02;4.60;;;;;;;28.41;100.00;100930.81;4907655;29;20032;-73
2022/08/24 08:37:51;;;;;;;8.57;4.72;;;;;;;28.57;100.00;100934.72;4921717;29;20385;-73
2022/08/24 08:41:01;;;;;;;7.38;5.38;;;;;;;28.45;100.00;100937.66;4921592;29;20123;-74
2022/08/24 08:43:59;;;;;;;6.70;4.22;;;;;;;28.39;100.00;100938.16;4919857;29;20039;-73
2022/08/24 08:47:04;;;;;;;9.27;4.93;;;;;;;28.30;100.00;100950.63;4921381;29;20020;-74
2022/08/24 08:50:44;;;;;;;8.55;5.10;;;;;;;28.04;100.00;100954.69;4907049;29;20119;-73
2022/08/24 08:53:50;;;;;;;15.50;9.77;;;;;;;28.63;100.00;100947.69;4864012;29;20026;-74
2022/08/24 08:57:08;;;;;;;9.75;5.03;;;;;;;28.62;100.00;100939.72;4921220;29;20040;-73
2022/08/24 09:00:07;;;;;;;8.30;4.78;;;;;;;29.03;100.00;100929.66;4920004;29;20032;-74
2022/08/24 09:03:31;;;;;;;7.03;4.70;;;;;;;28.70;100.00;100939.91;4919267;29;20040;-73
2022/08/24 09:06:32;;;;;;;9.23;5.20;;;;;;;29.52;100.00;100937.66;4918397;29;20130;-74
2022/08/24 09:09:55;;;;;;;7.68;4.50;;;;;;;29.57;100.00;100939.94;4920088;29;20366;-74
2022/08/24 09:13:05;;;;;;;6.75;4.40;;;;;;;29.62;100.00;100935.84;4919852;29;20031;-75
2022/08/24 09:15:51;;;;;;;9.98;5.20;;;;;;;29.43;100.00;100933.13;4906287;29;20034;-73
2022/08/24 09:18:51;;;;;;;10.80;5.00;;;;;;;29.05;100.00;100922.25;4920779;29;20466;-73
2022/08/24 09:22:14;;;;;;;10.40;4.95;;;;;;;29.65;100.00;100924.75;4919241;29;20511;-73
2022/08/24 09:25:24;;;;;;;11.32;4.60;;;;;;;29.49;100.00;100924.44;4920589;29;20032;-73
2022/08/24 09:28:31;;;;;;;9.40;4.60;;;;;;;29.77;100.00;100918.19;4918979;29;20032;-73
2022/08/24 09:31:39;;;;;;;13.05;5.55;;;;;;;29.20;100.00;100920.88;4907426;29;20028;-73
2022/08/24 09:34:40;;;;;;;12.60;4.70;;;;;;;29.38;100.00;100923.75;4920188;29;20075;-73
2022/08/24 09:37:32;;;;;;;12.50;5.53;;;;;;;29.49;100.00;100915.50;4920390;29;20032;-73
2022/08/24 09:40:42;;;;;;;11.73;5.40;;;;;;;29.41;100.00;100910.78;4919602;29;20472;-73
2022/08/24 09:43:30;;;;;;;11.93;5.78;;;;;;;29.37;100.00;100916.63;4920529;29;20042;-74
2022/08/24 09:46:16;;;;;;;14.48;7.40;;;;;;;29.81;100.00;100919.63;4920635;29;20349;-73
2022/08/24 09:49:32;;;;;;;12.27;4.85;;;;;;;29.79;100.00;100927.03;4919768;29;20053;-74
2022/08/24 09:52:46;;;;;;;16.33;5.38;;;;;;;29.81;100.00;100916.91;4918533;29;20456;-73
2022/08/24 09:56:00;;;;;;;12.68;5.40;;;;;;;29.84;100.00;100919.34;4920301;29;20051;-73
2022/08/24 09:59:12;;;;;;;12.10;4.90;;;;;;;29.92;100.00;100922.16;4920150;29;20036;-73
2022/08/24 10:02:15;;;;;;;14.13;5.57;;;;;;;29.82;100.00;100909.69;4907100;29;20051;-73
2022/08/24 10:05:28;;;;;;;10.50;5.43;;;;;;;30.09;100.00;100913.31;4900742;29;20474;-73
2022/08/24 10:08:43;;;;;;;9.88;5.05;;;;;;;30.45;100.00;100907.09;4899590;29;20029;-74
2022/08/24 10:12:03;;;;;;;12.38;5.10;;;;;;;30.57;100.00;100905.03;4899668;29;20028;-73
2022/08/24 10:15:07;;;;;;;13.13;6.00;;;;;;;30.66;100.00;100896.88;4900754;29;20029;-74
2022/08/24 10:18:08;;;;;;;9.90;5.45;;;;;;;30.63;100.00;100907.16;4900304;29;20037;-74
2022/08/24 10:21:39;;;;;;;7.07;4.93;;;;;;;30.61;100.00;100901.91;4900132;29;20028;-74
2022/08/24 10:24:32;;;;;;;10.73;5.20;;;;;;;30.75;100.00;100896.03;4860560;29;20034;-74
2022/08/24 10:27:37;;;;;;;12.98;5.25;;;;;;;30.49;100.00;100894.09;4899995;29;20033;-74
2022/08/24 10:30:56;;;;;;;11.55;6.85;;;;;;;30.13;100.00;100900.34;4900747;29;20119;-74
2022/08/24 10:34:03;;;;;;;17.25;5.55;;;;;;;30.88;100.00;100876.69;4900662;29;20051;-73
2022/08/24 10:36:52;;;;;;;14.63;6.60;;;;;;;30.50;100.00;100890.44;4900490;29;20036;-73
2022/08/24 10:39:56;;;;;;;10.35;5.30;;;;;;;30.64;100.00;100892.63;4900805;29;20086;-74
2022/08/24 10:43:34;;;;;;;15.68;5.30;;;;;;;30.80;100.00;100882.88;4900840;29;20029;-73
2022/08/24 10:46:50;;;;;;;13.93;5.07;;;;;;;31.03;100.00;100886.00;4900194;29;20036;-73
2022/08/24 10:49:36;;;;;;;10.65;5.43;;;;;;;30.67;100.00;100876.09;4896397;29;20040;-72
2022/08/24 10:52:47;;;;;;;10.30;5.32;;;;;;;30.39;100.00;100875.25;4898942;29;20056;-74
2022/08/24 10:55:34;;;;;;;10.57;5.25;;;;;;;30.32;100.00;100859.75;4899900;29;20029;-74
2022/08/24 10:58:44;;;;;;;14.23;5.55;;;;;;;30.54;100.00;100862.91;4900757;29;20069;-73
2022/08/24 11:01:34;;;;;;;14.23;5.97;;;;;;;30.47;100.00;100856.44;4898554;29;20028;-73
2022/08/24 11:04:29;;;;;;;34.28;23.90;;;;;;;30.73;100.00;100845.75;4902308;29;20052;-73
2022/08/24 11:07:20;;;;;;;11.00;5.40;;;;;;;31.04;100.00;100844.41;4919130;29;20458;-74
2022/08/24 11:10:08;;;;;;;15.05;5.40;;;;;;;30.84;100.00;100835.56;4906107;29;20051;-73
2022/08/24 11:12:55;;;;;;;10.82;5.53;;;;;;;30.82;100.00;100837.56;4917444;29;20095;-74
2022/08/24 11:16:07;;;;;;;9.50;5.45;;;;;;;30.94;100.00;100822.81;4904520;29;20032;-73
2022/08/24 11:18:54;;;;;;;13.25;5.45;;;;;;;30.73;100.00;100822.25;4918587;29;20080;-73
2022/08/24 11:21:52;;;;;;;19.23;6.47;;;;;;;31.22;100.00;100832.56;4906162;29;20425;-73
2022/08/24 11:24:42;;;;;;;19.83;5.15;;;;;;;31.28;100.00;100831.13;4905803;29;20028;-73
2022/08/24 11:27:36;;;;;;;14.30;6.40;;;;;;;30.95;100.00;100812.84;4918648;29;20087;-73
2022/08/24 11:30:27;;;;;;;16.77;6.00;;;;;;;31.17;100.00;100818.63;4919186;29;20028;-73
2022/08/24 11:33:48;;;;;;;16.85;5.60;;;;;;;31.06;100.00;100815.34;4918687;29;20032;-72
2022/08/24 11:36:37;;;;;;;14.02;5.97;;;;;;;31.41;100.00;100809.88;4916879;29;20048;-73
2022/08/24 11:39:31;;;;;;;16.83;5.80;;;;;;;31.10;100.00;100816.72;4905519;29;20043;-73
2022/08/24 11:42:38;;;;;;;19.70;6.10;;;;;;;31.02;100.00;100803.13;4918923;29;20032;-74
2022/08/24 11:45:33;;;;;;;11.60;5.30;;;;;;;31.43;100.00;100797.06;4904814;29;20024;-74
2022/08/24 11:48:21;;;;;;;11.70;5.88;;;;;;;31.04;100.00;100793.81;4905899;29;20036;-73
2022/08/24 11:51:22;;;;;;;12.65;4.95;;;;;;;31.64;100.00;100791.25;4919149;29;20553;-73
2022/08/24 11:54:23;;;;;;;11.27;5.50;;;;;;;31.46;100.00;100794.00;4918098;29;20140;-74
2022/08/24 11:57:29;;;;;;;17.90;6.22;;;;;;;31.61;100.00;100792.44;4917218;29;20449;-73
2022/08/24 12:00:21;;;;;;;14.82;6.40;;;;;;;32.01;100.00;100791.88;4918306;29;20048;-74
2022/08/24 12:03:07;;;;;;;17.67;5.18;;;;;;;32.31;97.65;100784.06;4920761;29;20346;-74
2022/08/24 12:06:04;;;;;;;20.38;5.40;;;;;;;32.00;95.05;100788.31;4901169;29;20056;-74
2022/08/24 12:09:08;;;;;;;18.88;5.28;;;;;;;31.85;94.53;100778.22;4903937;29;20033;-74
2022/08/24 12:12:11;;;;;;;22.20;5.20;;;;;;;31.88;90.51;100775.19;4903663;29;20029;-74
2022/08/24 12:15:17;;;;;;;19.27;5.03;;;;;;;31.97;91.92;100774.22;4902974;29;20032;-73
2022/08/24 12:18:21;;;;;;;22.80;5.78;;;;;;;32.63;82.21;100769.75;4902542;29;20119;-74
2022/08/24 12:21:09;;;;;;;19.85;5.40;;;;;;;32.75;85.64;100780.09;4903147;29;20028;-73
2022/08/24 12:24:03;;;;;;;23.73;8.90;;;;;;;32.57;78.37;100771.25;4901112;29;20032;-73
2022/08/24 12:26:55;;;;;;;18.30;5.00;;;;;;;32.79;78.54;100769.78;4901319;29;20035;-73
2022/08/24 12:30:07;;;;;;;16.83;4.32;;;;;;;33.08;77.28;100778.31;4902712;29;20033;-74
2022/08/24 12:32:59;;;;;;;20.52;4.65;;;;;;;32.67;72.30;100780.09;4903197;29;20028;-73
2022/08/24 12:35:51;;;;;;;20.20;5.10;;;;;;;32.27;78.02;100779.97;4902538;29;20047;-72
2022/08/24 12:38:44;;;;;;;18.38;4.32;;;;;;;32.04;75.53;100772.53;4902588;29;20438;-73
2022/08/24 12:41:34;;;;;;;13.80;4.38;;;;;;;32.94;74.61;100770.84;4902635;29;20111;-74
2022/08/24 12:44:24;;;;;;;21.65;9.35;;;;;;;33.14;72.62;100775.75;4900951;29;20029;-73
2022/08/24 12:47:10;;;;;;;13.77;3.70;;;;;;;32.99;67.99;100785.59;4901769;29;20119;-73
2022/08/24 12:50:19;;;;;;;21.88;5.10;;;;;;;32.89;71.25;100776.78;4902751;29;20036;-73
2022/08/24 12:53:37;;;;;;;11.00;4.13;;;;;;;32.97;65.03;100784.91;4901263;29;20032;-75
2022/08/24 12:56:47;;;;;;;13.65;3.95;;;;;;;33.31;63.66;100790.19;4900998;29;20036;-74
2022/08/24 12:59:42;;;;;;;16.83;3.80;;;;;;;33.35;64.76;100792.41;4902479;29;20481;-76
2022/08/24 13:02:44;;;;;;;20.52;3.97;;;;;;;33.27;62.34;100791.56;4901950;29;20029;-77
2022/08/24 13:05:47;;;;;;;26.15;3.80;;;;;;;33.16;60.90;100798.19;4913641;29;20440;-74
2022/08/24 13:08:40;;;;;;;16.38;4.03;;;;;;;32.61;63.12;100791.59;4921610;29;20028;-75
2022/08/24 13:11:26;;;;;;;16.42;3.85;;;;;;;32.70;65.42;100784.34;4921481;29;20036;-78
2022/08/24 13:14:22;;;;;;;14.40;4.30;;;;;;;32.92;67.31;100783.72;4920115;29;20048;-73
2022/08/24 13:17:10;;;;;;;14.43;4.10;;;;;;;33.24;65.11;100792.75;4921443;29;20523;-74